createdAt,value
2018-03-31T00:00:26.852Z,1000.69
2018-03-31T00:01:26.871Z,1000.73
2018-03-31T00:02:26.885Z,1000.73
2018-03-31T00:03:26.925Z,1000.73
2018-03-31T00:04:26.930Z,1000.77
2018-03-31T00:05:27.200Z,1000.69
2018-03-31T00:06:27.213Z,1000.75
2018-03-31T00:07:27.241Z,1000.63
2018-03-31T00:08:27.614Z,1000.58
2018-03-31T00:09:28.009Z,1000.61
2018-03-31T00:10:28.155Z,1000.52
2018-03-31T00:11:28.178Z,1000.47
2018-03-31T00:12:28.197Z,1000.46
2018-03-31T00:13:28.242Z,1000.45
2018-03-31T00:14:28.627Z,1000.43
2018-03-31T00:15:28.643Z,1000.33
2018-03-31T00:16:28.673Z,1000.45
2018-03-31T00:17:29.086Z,1000.37
2018-03-31T00:18:29.527Z,1000.39
2018-03-31T00:19:29.539Z,1000.41
2018-03-31T00:20:29.657Z,1000.34
2018-03-31T00:21:29.800Z,1000.41
2018-03-31T00:22:29.967Z,1000.42
2018-03-31T00:23:30.615Z,1000.39
2018-03-31T00:24:30.571Z,1000.48
2018-03-31T00:25:30.594Z,1000.54
2018-03-31T00:26:30.652Z,1000.48
2018-03-31T00:27:30.810Z,1000.41
2018-03-31T00:28:31.453Z,1000.41
2018-03-31T00:29:31.378Z,1000.35
2018-03-31T00:30:31.480Z,1000.33
2018-03-31T00:31:31.640Z,1000.4
2018-03-31T00:32:31.914Z,1000.29
2018-03-31T00:33:32.276Z,1000.4
2018-03-31T00:34:32.286Z,1000.33
2018-03-31T00:35:32.439Z,1000.35
2018-03-31T00:36:32.452Z,1000.35
2018-03-31T00:37:32.462Z,1000.29
2018-03-31T00:38:32.495Z,1000.31
2018-03-31T00:39:32.635Z,1000.29
2018-03-31T00:40:33.091Z,1000.27
2018-03-31T00:41:33.123Z,1000.27
2018-03-31T00:42:33.533Z,1000.29
2018-03-31T00:43:33.572Z,1000.19
2018-03-31T00:44:34.430Z,1000.31
2018-03-31T00:45:34.420Z,1000.36
2018-03-31T00:46:34.426Z,1000.25
2018-03-31T00:47:34.497Z,1000.25
2018-03-31T00:48:34.274Z,1000.23
2018-03-31T00:49:34.234Z,1000.3
2018-03-31T00:50:34.665Z,1000.27
2018-03-31T00:51:34.690Z,1000.26
2018-03-31T00:52:35.107Z,1000.25
2018-03-31T00:53:35.113Z,1000.23
2018-03-31T00:54:35.136Z,1000.2
2018-03-31T00:55:35.140Z,1000.19
2018-03-31T00:56:35.350Z,1000.16
2018-03-31T00:57:35.370Z,1000.12
2018-03-31T00:58:35.476Z,1000.15
2018-03-31T00:59:35.633Z,1000.17
2018-03-31T01:00:36.048Z,1000.14
2018-03-31T01:01:36.432Z,1000.16
2018-03-31T01:02:36.451Z,1000.12
2018-03-31T01:03:36.477Z,1000.11
2018-03-31T01:04:36.884Z,1000.11
2018-03-31T01:05:37.032Z,1000.09
2018-03-31T01:06:37.076Z,1000.1
2018-03-31T01:07:37.231Z,1000.2
2018-03-31T01:08:37.255Z,1000.29
2018-03-31T01:09:37.421Z,1000.15
2018-03-31T01:10:38.042Z,1000.24
2018-03-31T01:11:37.949Z,1000.2
2018-03-31T01:12:37.963Z,1000.19
2018-03-31T01:13:38.160Z,1000.14
2018-03-31T01:14:38.162Z,1000.08
2018-03-31T01:15:38.192Z,1000.16
2018-03-31T01:16:38.196Z,1000.12
2018-03-31T01:17:38.248Z,1000.09
2018-03-31T01:18:38.244Z,1000.15
2018-03-31T01:19:38.258Z,1000.1
2018-03-31T01:20:38.298Z,1000.28
2018-03-31T01:21:38.400Z,1000.11
2018-03-31T01:22:38.516Z,1000.11
2018-03-31T01:23:38.876Z,1000.1
2018-03-31T01:24:39.312Z,1000.1
2018-03-31T01:25:39.718Z,1000.17
2018-03-31T01:26:39.733Z,1000.15
2018-03-31T01:27:39.739Z,1000.16
2018-03-31T01:28:40.068Z,1000.07
2018-03-31T01:29:39.976Z,1000.08
2018-03-31T01:30:40.015Z,1000.1
2018-03-31T01:31:40.069Z,1000.11
2018-03-31T01:32:40.055Z,1000.12
2018-03-31T01:33:40.067Z,1000.13
2018-03-31T01:34:40.089Z,1000.18
2018-03-31T01:35:40.112Z,1000.18
2018-03-31T01:36:40.135Z,1000.19
2018-03-31T01:37:40.561Z,1000.11
2018-03-31T01:38:40.576Z,1000.12
2018-03-31T01:39:40.590Z,1000.09
2018-03-31T01:40:40.719Z,1000.17
2018-03-31T01:41:40.833Z,1000.11
2018-03-31T01:42:41.213Z,1000.07
2018-03-31T01:43:41.609Z,1000.08
2018-03-31T01:44:41.958Z,1000.1
2018-03-31T01:45:41.958Z,1000.1
2018-03-31T01:46:42.359Z,1000.12
2018-03-31T01:47:42.741Z,1000.09
2018-03-31T01:48:42.762Z,1000.1
2018-03-31T01:49:43.192Z,1000.08
2018-03-31T01:50:43.372Z,1000.06
2018-03-31T01:51:43.388Z,999.95
2018-03-31T01:52:43.415Z,999.93
2018-03-31T01:53:43.787Z,999.89
2018-03-31T01:54:44.163Z,999.83
2018-03-31T01:55:44.556Z,999.85
2018-03-31T01:56:44.949Z,999.82
2018-03-31T01:57:45.223Z,999.79
2018-03-31T01:58:44.992Z,999.79
2018-03-31T01:59:45.337Z,999.81
2018-03-31T02:00:45.361Z,999.84
2018-03-31T02:01:45.472Z,999.84
2018-03-31T02:02:45.877Z,999.82
2018-03-31T02:03:45.986Z,999.88
2018-03-31T02:04:46.005Z,999.8
2018-03-31T02:05:46.085Z,999.84
2018-03-31T02:06:46.107Z,999.81
2018-03-31T02:07:46.302Z,999.76
2018-03-31T02:08:46.316Z,999.78
2018-03-31T02:09:46.745Z,999.79
2018-03-31T02:10:46.757Z,999.72
2018-03-31T02:11:46.911Z,999.61
2018-03-31T02:12:46.930Z,999.63
2018-03-31T02:13:46.956Z,999.57
2018-03-31T02:14:46.981Z,999.6
2018-03-31T02:15:46.984Z,999.58
2018-03-31T02:16:47.024Z,999.54
2018-03-31T02:17:47.041Z,999.6
2018-03-31T02:18:47.054Z,999.57
2018-03-31T02:19:47.080Z,999.53
2018-03-31T02:20:47.208Z,999.59
2018-03-31T02:21:47.238Z,999.56
2018-03-31T02:22:47.687Z,999.56
2018-03-31T02:23:47.711Z,999.57
2018-03-31T02:24:48.257Z,999.56
2018-03-31T02:25:48.182Z,999.51
2018-03-31T02:26:48.432Z,999.5
2018-03-31T02:27:48.447Z,999.44
2018-03-31T02:28:48.805Z,999.42
2018-03-31T02:29:49.192Z,999.38
2018-03-31T02:30:49.640Z,999.42
2018-03-31T02:31:49.743Z,999.5
2018-03-31T02:32:49.767Z,999.54
2018-03-31T02:33:50.149Z,999.64
2018-03-31T02:34:50.530Z,999.6
2018-03-31T02:35:50.961Z,999.55
2018-03-31T02:36:50.980Z,999.56
2018-03-31T02:37:51.004Z,999.51
2018-03-31T02:38:51.031Z,999.48
2018-03-31T02:39:51.032Z,999.44
2018-03-31T02:40:51.053Z,999.34
2018-03-31T02:41:51.087Z,999.39
2018-03-31T02:42:51.748Z,999.26
2018-03-31T02:43:51.749Z,999.21
2018-03-31T02:44:52.072Z,999.19
2018-03-31T02:45:52.236Z,999.15
2018-03-31T02:46:52.476Z,999.13
2018-03-31T02:47:52.532Z,999.26
2018-03-31T02:48:52.663Z,999.23
2018-03-31T02:49:52.670Z,999.16
2018-03-31T02:50:53.123Z,999.2
2018-03-31T02:51:53.096Z,999.09
2018-03-31T02:52:53.063Z,999.06
2018-03-31T02:53:53.114Z,999.11
2018-03-31T02:54:53.154Z,999.09
2018-03-31T02:55:53.236Z,999.16
2018-03-31T02:56:53.374Z,999.08
2018-03-31T02:57:53.542Z,999.17
2018-03-31T02:58:53.565Z,999.16
2018-03-31T02:59:53.968Z,999.11
2018-03-31T03:00:53.990Z,999.09
2018-03-31T03:01:54.378Z,999.06
2018-03-31T03:02:54.394Z,998.97
2018-03-31T03:03:54.417Z,999
2018-03-31T03:04:54.838Z,998.96
2018-03-31T03:05:55.074Z,998.92
2018-03-31T03:06:55.467Z,998.98
2018-03-31T03:07:55.489Z,998.93
2018-03-31T03:08:55.524Z,998.99
2018-03-31T03:09:55.528Z,998.9
2018-03-31T03:10:55.564Z,998.88
2018-03-31T03:11:55.675Z,998.93
2018-03-31T03:12:55.692Z,998.83
2018-03-31T03:13:56.090Z,998.86
2018-03-31T03:14:56.490Z,998.83
2018-03-31T03:15:56.520Z,998.88
2018-03-31T03:16:56.531Z,998.83
2018-03-31T03:17:56.557Z,998.77
2018-03-31T03:18:56.927Z,998.76
2018-03-31T03:19:57.026Z,998.67
2018-03-31T03:20:57.479Z,998.73
2018-03-31T03:21:57.496Z,998.65
2018-03-31T03:22:57.621Z,998.66
2018-03-31T03:23:57.723Z,998.72
2018-03-31T03:24:57.661Z,998.65
2018-03-31T03:25:57.681Z,998.74
2018-03-31T03:26:57.696Z,998.74
2018-03-31T03:27:57.736Z,998.76
2018-03-31T03:28:57.748Z,998.72
2018-03-31T03:29:58.141Z,998.75
2018-03-31T03:30:58.426Z,998.77
2018-03-31T03:31:58.574Z,998.78
2018-03-31T03:32:58.722Z,998.83
2018-03-31T03:33:58.871Z,998.8
2018-03-31T03:34:58.892Z,998.77
2018-03-31T03:35:58.912Z,998.78
2018-03-31T03:36:58.933Z,998.75
2018-03-31T03:37:59.314Z,998.79
2018-03-31T03:38:59.343Z,998.72
2018-03-31T03:39:59.369Z,998.71
2018-03-31T03:40:59.578Z,998.67
2018-03-31T03:41:59.603Z,998.69
2018-03-31T03:42:59.749Z,998.74
2018-03-31T03:43:59.781Z,998.78
2018-03-31T03:44:59.907Z,998.82
2018-03-31T03:46:00.124Z,998.87
2018-03-31T03:47:00.140Z,998.88
2018-03-31T03:48:00.163Z,998.89
2018-03-31T03:49:00.189Z,998.85
2018-03-31T03:50:00.315Z,998.89
2018-03-31T03:51:00.329Z,998.85
2018-03-31T03:52:00.452Z,998.79
2018-03-31T03:53:00.697Z,998.81
2018-03-31T03:54:00.710Z,998.85
2018-03-31T03:55:00.984Z,998.85
2018-03-31T03:56:01.421Z,998.8
2018-03-31T03:57:01.711Z,998.83
2018-03-31T03:58:01.733Z,998.75
2018-03-31T03:59:01.751Z,998.78
2018-03-31T04:00:14.822Z,998.72
2018-03-31T04:01:01.806Z,998.67
2018-03-31T04:02:01.818Z,998.68
2018-03-31T04:03:01.848Z,998.69
2018-03-31T04:04:02.103Z,998.66
2018-03-31T04:05:02.559Z,998.64
2018-03-31T04:06:02.830Z,998.65
2018-03-31T04:07:03.021Z,998.67
2018-03-31T04:08:03.034Z,998.7
2018-03-31T04:09:03.068Z,998.7
2018-03-31T04:10:03.073Z,998.67
2018-03-31T04:11:03.112Z,998.65
2018-03-31T04:12:03.120Z,998.65
2018-03-31T04:13:03.148Z,998.64
2018-03-31T04:14:03.169Z,998.71
2018-03-31T04:15:03.194Z,998.63
2018-03-31T04:16:03.212Z,998.53
2018-03-31T04:17:03.242Z,998.57
2018-03-31T04:18:03.256Z,998.55
2018-03-31T04:19:03.290Z,998.56
2018-03-31T04:20:03.307Z,998.68
2018-03-31T04:21:03.332Z,998.59
2018-03-31T04:22:03.380Z,998.54
2018-03-31T04:23:03.370Z,998.51
2018-03-31T04:24:03.393Z,998.52
2018-03-31T04:25:03.422Z,998.56
2018-03-31T04:26:03.440Z,998.56
2018-03-31T04:27:03.460Z,998.54
2018-03-31T04:28:03.488Z,998.46
2018-03-31T04:29:03.734Z,998.45
2018-03-31T04:30:03.728Z,998.45
2018-03-31T04:31:03.765Z,998.53
2018-03-31T04:32:03.956Z,998.48
2018-03-31T04:33:03.977Z,998.49
2018-03-31T04:34:04.207Z,998.49
2018-03-31T04:35:04.228Z,998.5
2018-03-31T04:36:04.256Z,998.52
2018-03-31T04:37:04.274Z,998.48
2018-03-31T04:38:04.358Z,998.46
2018-03-31T04:39:05.122Z,998.54
2018-03-31T04:40:04.853Z,998.47
2018-03-31T04:41:05.090Z,998.51
2018-03-31T04:42:05.083Z,998.49
2018-03-31T04:43:05.107Z,998.46
2018-03-31T04:44:05.405Z,998.5
2018-03-31T04:45:05.423Z,998.45
2018-03-31T04:46:05.450Z,998.51
2018-03-31T04:47:05.722Z,998.44
2018-03-31T04:48:05.711Z,998.49
2018-03-31T04:49:05.736Z,998.47
2018-03-31T04:50:05.756Z,998.45
2018-03-31T04:51:05.767Z,998.41
2018-03-31T04:52:06.216Z,998.45
2018-03-31T04:53:06.684Z,998.52
2018-03-31T04:54:06.704Z,998.51
2018-03-31T04:55:06.724Z,998.48
2018-03-31T04:56:06.749Z,998.6
2018-03-31T04:57:07.011Z,998.55
2018-03-31T04:58:07.073Z,998.52
2018-03-31T04:59:07.053Z,998.53
2018-03-31T05:00:10.350Z,998.56
2018-03-31T05:01:10.411Z,998.59
2018-03-31T05:02:10.808Z,998.54
2018-03-31T05:03:11.189Z,998.5
2018-03-31T05:04:11.194Z,998.61
2018-03-31T05:05:11.234Z,998.51
2018-03-31T05:06:11.242Z,998.55
2018-03-31T05:07:11.632Z,998.59
2018-03-31T05:08:11.647Z,998.54
2018-03-31T05:09:12.056Z,998.53
2018-03-31T05:10:12.067Z,998.47
2018-03-31T05:11:12.136Z,998.47
2018-03-31T05:12:12.160Z,998.57
2018-03-31T05:13:12.535Z,998.48
2018-03-31T05:14:12.583Z,998.39
2018-03-31T05:15:12.935Z,998.46
2018-03-31T05:16:12.952Z,998.38
2018-03-31T05:17:13.011Z,998.45
2018-03-31T05:18:13.043Z,998.35
2018-03-31T05:19:13.071Z,998.36
2018-03-31T05:20:13.077Z,998.34
2018-03-31T05:21:13.115Z,998.31
2018-03-31T05:22:13.221Z,998.36
2018-03-31T05:23:13.546Z,998.31
2018-03-31T05:24:13.824Z,998.32
2018-03-31T05:25:13.965Z,998.34
2018-03-31T05:26:13.871Z,998.34
2018-03-31T05:27:13.896Z,998.37
2018-03-31T05:28:13.928Z,998.39
2018-03-31T05:29:13.948Z,998.36
2018-03-31T05:30:13.966Z,998.37
2018-03-31T05:31:14.269Z,998.3
2018-03-31T05:32:14.843Z,998.26
2018-03-31T05:33:14.946Z,998.27
2018-03-31T05:34:14.949Z,998.32
2018-03-31T05:35:15.054Z,998.22
2018-03-31T05:36:15.098Z,998.25
2018-03-31T05:37:15.224Z,998.23
2018-03-31T05:38:15.241Z,998.17
2018-03-31T05:39:15.262Z,998.11
2018-03-31T05:40:15.304Z,998.16
2018-03-31T05:41:15.317Z,998.13
2018-03-31T05:42:15.338Z,998.03
2018-03-31T05:43:15.365Z,998.02
2018-03-31T05:44:15.375Z,998
2018-03-31T05:45:15.990Z,997.98
2018-03-31T05:46:15.971Z,997.95
2018-03-31T05:47:15.961Z,997.98
2018-03-31T05:48:15.972Z,997.95
2018-03-31T05:49:15.993Z,997.96
2018-03-31T05:50:16.296Z,997.91
2018-03-31T05:51:16.323Z,997.87
2018-03-31T05:52:16.390Z,997.87
2018-03-31T05:53:16.484Z,997.85
2018-03-31T05:54:16.831Z,997.96
2018-03-31T05:55:16.866Z,997.86
2018-03-31T05:56:16.868Z,997.75
2018-03-31T05:57:17.039Z,997.74
2018-03-31T05:58:17.425Z,997.76
2018-03-31T05:59:17.550Z,997.74
2018-03-31T06:00:17.563Z,997.7
2018-03-31T06:01:17.580Z,997.6
2018-03-31T06:02:17.932Z,997.7
2018-03-31T06:03:18.349Z,997.64
2018-03-31T06:04:18.366Z,997.65
2018-03-31T06:05:18.786Z,997.59
2018-03-31T06:06:18.810Z,997.6
2018-03-31T06:07:18.836Z,997.52
2018-03-31T06:08:19.228Z,997.57
2018-03-31T06:09:19.600Z,997.54
2018-03-31T06:10:20.016Z,997.55
2018-03-31T06:11:20.026Z,997.39
2018-03-31T06:12:20.053Z,997.48
2018-03-31T06:13:20.166Z,997.43
2018-03-31T06:14:20.460Z,997.42
2018-03-31T06:15:20.489Z,997.38
2018-03-31T06:16:20.515Z,997.34
2018-03-31T06:17:20.531Z,997.35
2018-03-31T06:18:20.549Z,997.4
2018-03-31T06:19:20.575Z,997.33
2018-03-31T06:20:20.768Z,997.28
2018-03-31T06:21:20.822Z,997.31
2018-03-31T06:22:20.815Z,997.3
2018-03-31T06:23:21.228Z,997.27
2018-03-31T06:24:21.232Z,997.29
2018-03-31T06:25:21.259Z,997.24
2018-03-31T06:26:21.296Z,997.36
2018-03-31T06:27:21.294Z,997.31
2018-03-31T06:28:21.711Z,997.29
2018-03-31T06:29:22.108Z,997.31
2018-03-31T06:30:22.498Z,997.32
2018-03-31T06:31:22.509Z,997.29
2018-03-31T06:32:22.950Z,997.39
2018-03-31T06:33:22.966Z,997.43
2018-03-31T06:34:22.988Z,997.38
2018-03-31T06:35:23.392Z,997.42
2018-03-31T06:36:23.547Z,997.45
2018-03-31T06:37:24.030Z,997.36
2018-03-31T06:38:24.161Z,997.34
2018-03-31T06:39:24.546Z,997.39
2018-03-31T06:40:24.566Z,997.41
2018-03-31T06:41:24.585Z,997.38
2018-03-31T06:42:24.734Z,997.45
2018-03-31T06:43:24.884Z,997.37
2018-03-31T06:44:24.926Z,997.42
2018-03-31T06:45:25.090Z,997.38
2018-03-31T06:46:25.110Z,997.39
2018-03-31T06:47:25.128Z,997.4
2018-03-31T06:48:25.578Z,997.41
2018-03-31T06:49:26.009Z,997.39
2018-03-31T06:50:26.025Z,997.44
2018-03-31T06:51:26.065Z,997.47
2018-03-31T06:52:26.068Z,997.42
2018-03-31T06:53:26.482Z,997.38
2018-03-31T06:54:26.580Z,997.46
2018-03-31T06:55:27.024Z,997.42
2018-03-31T06:56:26.951Z,997.41
2018-03-31T06:57:27.443Z,997.39
2018-03-31T06:58:27.469Z,997.37
2018-03-31T06:59:27.486Z,997.38
2018-03-31T07:00:27.530Z,997.43
2018-03-31T07:01:27.795Z,997.4
2018-03-31T07:02:27.835Z,997.4
2018-03-31T07:03:27.832Z,997.42
2018-03-31T07:04:27.882Z,997.4
2018-03-31T07:05:27.881Z,997.42
2018-03-31T07:06:27.906Z,997.4
2018-03-31T07:07:28.116Z,997.36
2018-03-31T07:08:28.152Z,997.42
2018-03-31T07:09:28.146Z,997.44
2018-03-31T07:10:28.174Z,997.44
2018-03-31T07:11:28.189Z,997.43
2018-03-31T07:12:28.219Z,997.4
2018-03-31T07:13:28.235Z,997.49
2018-03-31T07:14:28.262Z,997.41
2018-03-31T07:15:28.330Z,997.41
2018-03-31T07:16:28.309Z,997.36
2018-03-31T07:17:28.357Z,997.31
2018-03-31T07:18:28.612Z,997.37
2018-03-31T07:19:28.635Z,997.3
2018-03-31T07:20:28.657Z,997.27
2018-03-31T07:21:28.667Z,997.32
2018-03-31T07:22:29.056Z,997.3
2018-03-31T07:23:29.317Z,997.29
2018-03-31T07:24:29.390Z,997.26
2018-03-31T07:25:29.799Z,997.43
2018-03-31T07:26:29.959Z,997.28
2018-03-31T07:27:30.138Z,997.29
2018-03-31T07:28:30.123Z,997.23
2018-03-31T07:29:29.846Z,997.27
2018-03-31T07:30:29.895Z,997.31
2018-03-31T07:31:29.928Z,997.34
2018-03-31T07:32:30.214Z,997.32
2018-03-31T07:33:29.971Z,997.33
2018-03-31T07:34:30.279Z,997.35
2018-03-31T07:35:30.299Z,997.34
2018-03-31T07:36:30.213Z,997.33
2018-03-31T07:37:30.520Z,997.36
2018-03-31T07:38:30.157Z,997.36
2018-03-31T07:39:30.399Z,997.37
2018-03-31T07:40:30.125Z,997.32
2018-03-31T07:41:30.526Z,997.36
2018-03-31T07:42:30.702Z,997.33
2018-03-31T07:43:30.574Z,997.41
2018-03-31T07:44:31.032Z,997.37
2018-03-31T07:45:31.063Z,997.28
2018-03-31T07:46:31.086Z,997.34
2018-03-31T07:47:31.138Z,997.25
2018-03-31T07:48:31.204Z,997.23
2018-03-31T07:49:31.155Z,997.21
2018-03-31T07:50:31.188Z,997.24
2018-03-31T07:51:31.452Z,997.25
2018-03-31T07:52:31.469Z,997.19
2018-03-31T07:53:31.472Z,997.23
2018-03-31T07:54:31.501Z,997.24
2018-03-31T07:55:31.532Z,997.23
2018-03-31T07:56:31.883Z,997.16
2018-03-31T07:57:32.026Z,997.09
2018-03-31T07:58:32.049Z,997.1
2018-03-31T07:59:32.076Z,997.09
2018-03-31T08:00:32.125Z,997.05
2018-03-31T08:01:32.317Z,997.03
2018-03-31T08:02:32.376Z,997
2018-03-31T08:03:32.706Z,996.99
2018-03-31T08:04:32.680Z,997.01
2018-03-31T08:05:32.958Z,996.96
2018-03-31T08:06:32.714Z,996.9
2018-03-31T08:07:33.129Z,996.94
2018-03-31T08:08:33.157Z,996.94
2018-03-31T08:09:33.207Z,996.92
2018-03-31T08:10:33.495Z,996.9
2018-03-31T08:11:34.689Z,996.88
2018-03-31T08:12:33.222Z,996.87
2018-03-31T08:13:33.304Z,996.89
2018-03-31T08:14:33.361Z,996.95
2018-03-31T08:15:33.344Z,996.84
2018-03-31T08:16:33.322Z,996.91
2018-03-31T08:17:33.673Z,996.88
2018-03-31T08:18:33.527Z,996.79
2018-03-31T08:19:33.464Z,996.86
2018-03-31T08:20:34.051Z,996.8
2018-03-31T08:21:33.986Z,996.78
2018-03-31T08:22:34.397Z,996.69
2018-03-31T08:23:34.682Z,996.71
2018-03-31T08:24:34.483Z,996.7
2018-03-31T08:25:34.494Z,996.65
2018-03-31T08:26:34.497Z,996.67
2018-03-31T08:27:34.524Z,996.64
2018-03-31T08:28:34.541Z,996.65
2018-03-31T08:29:35.050Z,996.66
2018-03-31T08:30:34.792Z,996.62
2018-03-31T08:31:34.780Z,996.59
2018-03-31T08:32:34.825Z,996.57
2018-03-31T08:33:34.828Z,996.51
2018-03-31T08:34:34.846Z,996.6
2018-03-31T08:35:34.879Z,996.47
2018-03-31T08:36:34.893Z,996.5
2018-03-31T08:37:34.952Z,996.49
2018-03-31T08:38:34.938Z,996.59
2018-03-31T08:39:35.269Z,996.46
2018-03-31T08:40:35.300Z,996.6
2018-03-31T08:41:35.340Z,996.62
2018-03-31T08:42:35.352Z,996.55
2018-03-31T08:43:35.355Z,996.55
2018-03-31T08:44:35.430Z,996.7
2018-03-31T08:45:35.414Z,996.68
2018-03-31T08:46:35.513Z,996.7
2018-03-31T08:47:35.471Z,996.76
2018-03-31T08:48:35.761Z,996.77
2018-03-31T08:49:35.512Z,996.76
2018-03-31T08:50:35.532Z,996.72
2018-03-31T08:51:35.571Z,996.72
2018-03-31T08:52:35.641Z,996.76
2018-03-31T08:53:35.756Z,996.76
2018-03-31T08:54:35.645Z,996.74
2018-03-31T08:55:35.784Z,996.67
2018-03-31T08:56:35.811Z,996.59
2018-03-31T08:57:35.746Z,996.6
2018-03-31T08:58:35.756Z,996.61
2018-03-31T08:59:35.745Z,996.61
2018-03-31T09:00:35.757Z,996.52
2018-03-31T09:01:36.082Z,996.62
2018-03-31T09:02:35.810Z,996.56
2018-03-31T09:03:36.192Z,996.52
2018-03-31T09:04:36.223Z,996.55
2018-03-31T09:05:36.239Z,996.52
2018-03-31T09:06:36.254Z,996.45
2018-03-31T09:07:36.270Z,996.54
2018-03-31T09:08:36.296Z,996.43
2018-03-31T09:09:36.456Z,996.51
2018-03-31T09:10:36.526Z,996.46
2018-03-31T09:11:36.781Z,996.45
2018-03-31T09:12:36.582Z,996.43
2018-03-31T09:13:36.532Z,996.42
2018-03-31T09:14:36.618Z,996.49
2018-03-31T09:15:36.589Z,996.42
2018-03-31T09:16:36.709Z,996.44
2018-03-31T09:17:36.667Z,996.37
2018-03-31T09:18:36.757Z,996.41
2018-03-31T09:19:36.808Z,996.3
2018-03-31T09:20:36.706Z,996.47
2018-03-31T09:21:36.794Z,996.34
2018-03-31T09:22:36.808Z,996.41
2018-03-31T09:23:36.781Z,996.41
2018-03-31T09:24:36.849Z,996.41
2018-03-31T09:25:36.822Z,996.48
2018-03-31T09:26:36.859Z,996.43
2018-03-31T09:27:36.896Z,996.51
2018-03-31T09:28:36.894Z,996.56
2018-03-31T09:29:37.557Z,996.52
2018-03-31T09:30:37.298Z,996.35
2018-03-31T09:31:38.207Z,996.45
2018-03-31T09:32:38.230Z,996.44
2018-03-31T09:33:37.945Z,996.45
2018-03-31T09:34:37.896Z,996.44
2018-03-31T09:35:37.981Z,996.4
2018-03-31T09:36:37.971Z,996.35
2018-03-31T09:37:37.984Z,996.32
2018-03-31T09:38:38.380Z,996.38
2018-03-31T09:39:38.038Z,996.34
2018-03-31T09:40:38.634Z,996.36
2018-03-31T09:41:39.054Z,996.39
2018-03-31T09:42:39.159Z,996.33
2018-03-31T09:43:39.109Z,996.4
2018-03-31T09:44:39.173Z,996.36
2018-03-31T09:45:39.146Z,996.3
2018-03-31T09:46:39.614Z,996.29
2018-03-31T09:47:39.292Z,996.26
2018-03-31T09:48:39.232Z,996.3
2018-03-31T09:49:39.287Z,996.33
2018-03-31T09:50:39.288Z,996.29
2018-03-31T09:51:39.352Z,996.27
2018-03-31T09:52:39.421Z,996.35
2018-03-31T09:53:39.370Z,996.34
2018-03-31T09:54:39.526Z,996.37
2018-03-31T09:55:39.375Z,996.41
2018-03-31T09:56:39.685Z,996.4
2018-03-31T09:57:39.715Z,996.44
2018-03-31T09:58:39.472Z,996.37
2018-03-31T09:59:39.787Z,996.32
2018-03-31T10:00:39.486Z,996.33
2018-03-31T10:01:39.509Z,996.38
2018-03-31T10:02:39.892Z,996.35
2018-03-31T10:03:40.563Z,996.37
2018-03-31T10:04:40.985Z,996.3
2018-03-31T10:05:41.129Z,996.35
2018-03-31T10:06:41.178Z,996.37
2018-03-31T10:07:41.299Z,996.35
2018-03-31T10:08:42.051Z,996.35
2018-03-31T10:09:42.799Z,996.37
2018-03-31T10:10:42.789Z,996.33
2018-03-31T10:11:42.811Z,996.37
2018-03-31T10:12:42.939Z,996.37
2018-03-31T10:13:42.951Z,996.37
2018-03-31T10:14:43.076Z,996.37
2018-03-31T10:15:43.008Z,996.43
2018-03-31T10:16:43.037Z,996.42
2018-03-31T10:17:43.166Z,996.41
2018-03-31T10:18:43.582Z,996.34
2018-03-31T10:19:43.974Z,996.37
2018-03-31T10:20:44.098Z,996.37
2018-03-31T10:21:44.469Z,996.33
2018-03-31T10:22:44.877Z,996.3
2018-03-31T10:23:44.896Z,996.37
2018-03-31T10:24:44.916Z,996.23
2018-03-31T10:25:44.940Z,996.25
2018-03-31T10:26:44.993Z,996.25
2018-03-31T10:27:44.986Z,996.23
2018-03-31T10:28:45.326Z,996.23
2018-03-31T10:29:45.485Z,996.2
2018-03-31T10:30:45.357Z,996.21
2018-03-31T10:31:45.725Z,996.22
2018-03-31T10:32:46.148Z,996.18
2018-03-31T10:33:46.169Z,996.21
2018-03-31T10:34:46.199Z,996.21
2018-03-31T10:35:46.570Z,996.16
2018-03-31T10:36:46.593Z,996.15
2018-03-31T10:37:46.718Z,996.11
2018-03-31T10:38:47.122Z,996.15
2018-03-31T10:39:47.159Z,996.15
2018-03-31T10:40:47.177Z,996.16
2018-03-31T10:41:47.198Z,996.22
2018-03-31T10:42:47.580Z,996.2
2018-03-31T10:43:47.607Z,996.19
2018-03-31T10:44:47.636Z,996.17
2018-03-31T10:45:47.660Z,996.22
2018-03-31T10:46:47.822Z,996.21
2018-03-31T10:47:47.981Z,996.14
2018-03-31T10:48:48.244Z,996.18
2018-03-31T10:49:48.274Z,996.16
2018-03-31T10:50:48.411Z,996.18
2018-03-31T10:51:48.432Z,996.22
2018-03-31T10:52:48.807Z,996.22
2018-03-31T10:53:48.819Z,996.24
2018-03-31T10:54:48.886Z,996.25
2018-03-31T10:55:49.292Z,996.22
2018-03-31T10:56:49.426Z,996.26
2018-03-31T10:57:49.442Z,996.25
2018-03-31T10:58:49.831Z,996.15
2018-03-31T10:59:50.282Z,996.23
2018-03-31T11:00:50.341Z,996.16
2018-03-31T11:01:50.313Z,996.18
2018-03-31T11:02:50.346Z,996.28
2018-03-31T11:03:50.357Z,996.21
2018-03-31T11:04:50.384Z,996.27
2018-03-31T11:05:50.407Z,996.2
2018-03-31T11:06:50.712Z,996.2
2018-03-31T11:07:50.723Z,996.17
2018-03-31T11:08:50.760Z,996.13
2018-03-31T11:09:50.786Z,996.13
2018-03-31T11:10:50.799Z,996.16
2018-03-31T11:11:50.833Z,996.09
2018-03-31T11:12:50.890Z,996.18
2018-03-31T11:13:50.872Z,996.13
2018-03-31T11:14:51.168Z,996.14
2018-03-31T11:15:51.190Z,996.12
2018-03-31T11:16:51.205Z,996.14
2018-03-31T11:17:51.502Z,996.12
2018-03-31T11:18:51.527Z,996.12
2018-03-31T11:19:51.543Z,996.13
2018-03-31T11:20:51.706Z,996.15
2018-03-31T11:21:51.828Z,996.06
2018-03-31T11:22:51.851Z,996.1
2018-03-31T11:23:51.883Z,996.07
2018-03-31T11:24:51.896Z,996.1
2018-03-31T11:25:52.205Z,996.17
2018-03-31T11:26:52.453Z,996.09
2018-03-31T11:27:52.706Z,996.09
2018-03-31T11:28:52.983Z,996.15
2018-03-31T11:29:52.920Z,996.18
2018-03-31T11:30:52.960Z,996.11
2018-03-31T11:31:52.983Z,996.05
2018-03-31T11:32:52.995Z,996.02
2018-03-31T11:33:53.332Z,995.96
2018-03-31T11:34:53.049Z,995.95
2018-03-31T11:35:53.064Z,995.95
2018-03-31T11:36:53.094Z,995.91
2018-03-31T11:37:53.149Z,995.89
2018-03-31T11:38:53.147Z,995.91
2018-03-31T11:39:53.555Z,995.9
2018-03-31T11:40:53.821Z,996.01
2018-03-31T11:41:53.896Z,995.96
2018-03-31T11:42:53.913Z,995.96
2018-03-31T11:43:53.921Z,995.98
2018-03-31T11:44:53.931Z,995.95
2018-03-31T11:45:53.948Z,995.9
2018-03-31T11:46:53.970Z,995.85
2018-03-31T11:47:54.251Z,995.93
2018-03-31T11:48:54.024Z,995.89
2018-03-31T11:49:54.035Z,995.85
2018-03-31T11:50:54.295Z,995.88
2018-03-31T11:51:54.315Z,995.87
2018-03-31T11:52:54.342Z,995.87
2018-03-31T11:53:54.370Z,995.94
2018-03-31T11:54:54.715Z,995.95
2018-03-31T11:55:55.099Z,996.01
2018-03-31T11:56:55.128Z,996.05
2018-03-31T11:57:55.154Z,996.05
2018-03-31T11:58:55.168Z,996
2018-03-31T11:59:55.195Z,995.98
2018-03-31T12:00:55.237Z,995.99
2018-03-31T12:01:55.232Z,995.89
2018-03-31T12:02:55.259Z,995.85
2018-03-31T12:03:55.416Z,995.81
2018-03-31T12:04:55.673Z,995.8
2018-03-31T12:05:55.697Z,995.75
2018-03-31T12:06:55.729Z,995.68
2018-03-31T12:07:55.752Z,995.7
2018-03-31T12:08:56.168Z,995.71
2018-03-31T12:09:56.574Z,995.67
2018-03-31T12:10:57.014Z,995.64
2018-03-31T12:11:57.051Z,995.65
2018-03-31T12:12:57.070Z,995.66
2018-03-31T12:13:57.200Z,995.66
2018-03-31T12:14:57.341Z,995.63
2018-03-31T12:15:57.369Z,995.68
2018-03-31T12:16:57.477Z,995.63
2018-03-31T12:17:57.610Z,995.63
2018-03-31T12:18:57.633Z,995.61
2018-03-31T12:19:57.726Z,995.61
2018-03-31T12:20:57.744Z,995.62
2018-03-31T12:21:58.174Z,995.6
2018-03-31T12:22:58.176Z,995.6
2018-03-31T12:23:58.212Z,995.6
2018-03-31T12:24:58.244Z,995.68
2018-03-31T12:25:58.266Z,995.65
2018-03-31T12:26:58.704Z,995.7
2018-03-31T12:27:58.761Z,995.65
2018-03-31T12:28:58.960Z,995.63